Time;durP1;ratioP1;P1;durP2;ratioP2;P2;SDS_P1;SDS_P2;PMS_P1;PMS_P2;Temp;Humidity;BMP_temperature;BMP_pressure;BME280_temperature;BME280_humidity;BME280_pressure;Samples;Min_cycle;Max_cycle;Signal;HPM_P1;HPM_P2
2023/10/12 00:00:26;;;;;;;1.63;1.30;;;14.90;62.50;;;;;;6150271;23;20157;-84
2023/10/12 00:02:58;;;;;;;1.77;1.03;;;14.90;62.50;;;;;;6151683;23;20535;-84
2023/10/12 00:05:29;;;;;;;1.53;0.90;;;14.80;62.40;;;;;;6151960;23;20199;-84
2023/10/12 00:07:57;;;;;;;1.37;1.27;;;14.80;62.80;;;;;;6151033;23;20279;-83
2023/10/12 00:10:26;;;;;;;1.17;1.07;;;14.80;63.00;;;;;;6126094;23;20172;-83
2023/10/12 00:12:59;;;;;;;0.90;0.83;;;14.80;62.80;;;;;;6126835;23;20168;-84
2023/10/12 00:15:36;;;;;;;8.23;0.60;;;14.80;62.80;;;;;;6151755;23;20165;-84
2023/10/12 00:18:08;;;;;;;0.63;0.63;;;14.80;62.80;;;;;;6152185;23;20478;-84
2023/10/12 00:20:38;;;;;;;0.67;0.67;;;14.70;62.70;;;;;;6152158;23;20172;-85
2023/10/12 00:23:14;;;;;;;2.17;1.30;;;14.70;62.80;;;;;;6152495;23;20255;-84
2023/10/12 00:25:47;;;;;;;0.70;0.70;;;14.70;62.80;;;;;;6153094;23;20224;-85
2023/10/12 00:28:20;;;;;;;0.40;0.40;;;14.70;62.80;;;;;;6152925;23;20618;-84
2023/10/12 00:30:52;;;;;;;0.90;0.90;;;14.70;62.80;;;;;;6151496;23;20168;-84
2023/10/12 00:33:22;;;;;;;1.60;1.50;;;14.70;62.80;;;;;;6152279;23;20188;-82
2023/10/12 00:35:53;;;;;;;1.13;0.63;;;14.70;62.80;;;;;;6150965;23;20627;-85
2023/10/12 00:38:24;;;;;;;0.70;0.63;;;14.70;62.90;;;;;;6123406;23;20172;-84
2023/10/12 00:40:57;;;;;;;1.17;1.07;;;14.70;63.00;;;;;;6150280;23;20531;-83
2023/10/12 00:43:36;;;;;;;0.77;0.70;;;14.60;63.10;;;;;;6126286;23;20161;-85
2023/10/12 00:46:21;;;;;;;13.10;2.13;;;14.60;63.10;;;;;;6153647;23;20185;-84
2023/10/12 00:49:14;;;;;;;0.50;0.50;;;14.60;63.00;;;;;;6150903;23;20164;-84
2023/10/12 00:51:40;;;;;;;0.60;0.60;;;14.60;63.00;;;;;;6151899;23;20711;-85
2023/10/12 00:54:10;;;;;;;3.27;1.63;;;14.60;63.10;;;;;;6149422;23;20168;-85
2023/10/12 00:56:43;;;;;;;0.80;0.80;;;14.60;63.00;;;;;;6152769;23;20188;-85
2023/10/12 00:59:15;;;;;;;1.30;1.20;;;14.50;62.90;;;;;;6152575;23;20164;-87
2023/10/12 01:01:43;;;;;;;1.47;1.00;;;14.50;63.00;;;;;;6152339;23;20622;-84
2023/10/12 01:04:16;;;;;;;1.47;1.37;;;14.50;63.30;;;;;;6152763;23;20168;-84
2023/10/12 01:06:47;;;;;;;1.40;0.83;;;14.50;63.60;;;;;;6153641;23;20240;-85
2023/10/12 01:09:22;;;;;;;0.50;0.50;;;14.40;63.30;;;;;;6126648;23;20168;-84
2023/10/12 01:11:58;;;;;;;1.30;0.97;;;14.40;63.30;;;;;;6152068;23;20239;-85
2023/10/12 01:14:30;;;;;;;1.33;1.03;;;14.40;63.20;;;;;;6150160;23;20161;-84
2023/10/12 01:17:03;;;;;;;0.80;0.80;;;14.40;63.30;;;;;;6151302;23;20200;-84
2023/10/12 01:19:34;;;;;;;2.63;2.07;;;14.40;63.40;;;;;;6150339;23;20160;-84
2023/10/12 01:22:12;;;;;;;2.83;0.90;;;14.40;63.40;;;;;;6151480;23;20160;-84
2023/10/12 01:24:47;;;;;;;1.43;1.33;;;14.40;63.40;;;;;;6149651;23;20195;-85
2023/10/12 01:27:17;;;;;;;1.37;1.27;;;14.40;63.40;;;;;;6152347;23;20168;-84
2023/10/12 01:29:47;;;;;;;1.87;1.77;;;14.30;63.30;;;;;;6150547;23;20674;-84
2023/10/12 01:32:27;;;;;;;1.97;1.63;;;14.30;63.60;;;;;;6150803;23;20215;-86
2023/10/12 01:35:04;;;;;;;1.67;1.10;;;14.30;64.10;;;;;;6149706;23;20164;-82
2023/10/12 01:37:48;;;;;;;1.40;1.00;;;14.30;64.10;;;;;;6150471;23;20847;-85
2023/10/12 01:40:21;;;;;;;0.73;0.73;;;14.30;64.20;;;;;;6129153;23;20460;-83
2023/10/12 01:42:56;;;;;;;1.03;0.93;;;14.20;64.60;;;;;;6149618;23;20156;-83
2023/10/12 01:45:40;;;;;;;1.20;0.93;;;14.20;64.40;;;;;;6151968;23;20274;-84
2023/10/12 01:48:12;;;;;;;0.50;0.50;;;14.20;64.30;;;;;;6129595;23;20157;-84
2023/10/12 01:50:41;;;;;;;1.33;0.73;;;14.10;64.20;;;;;;6150530;23;20158;-85
2023/10/12 01:53:25;;;;;;;1.47;1.33;;;14.20;64.40;;;;;;6151785;23;20168;-85
2023/10/12 01:55:55;;;;;;;0.80;0.80;;;14.10;64.50;;;;;;6150583;23;20164;-84
2023/10/12 01:58:27;;;;;;;5.20;1.73;;;14.10;64.40;;;;;;6151574;23;20691;-85
2023/10/12 02:01:05;;;;;;;1.63;1.53;;;14.10;64.30;;;;;;6151850;23;20156;-84
2023/10/12 02:03:37;;;;;;;1.60;1.10;;;14.10;64.30;;;;;;6150727;23;20251;-83
2023/10/12 02:06:13;;;;;;;3.67;1.93;;;14.10;64.40;;;;;;6152592;23;20262;-84
2023/10/12 02:08:49;;;;;;;1.03;0.93;;;14.10;64.40;;;;;;6152279;23;20156;-84
2023/10/12 02:11:36;;;;;;;2.00;1.80;;;14.10;64.40;;;;;;6150445;23;20661;-83
2023/10/12 02:14:05;;;;;;;0.70;0.70;;;14.10;64.40;;;;;;6151996;23;20164;-84
2023/10/12 02:16:37;;;;;;;1.03;0.87;;;14.10;64.40;;;;;;6152740;23;20169;-83
2023/10/12 02:19:08;;;;;;;1.43;1.33;;;14.00;64.80;;;;;;6153878;23;20212;-86
2023/10/12 02:21:40;;;;;;;2.47;1.27;;;14.00;64.80;;;;;;6153722;23;20180;-85
2023/10/12 02:24:13;;;;;;;1.17;1.07;;;14.00;64.80;;;;;;6155213;23;20252;-83
2023/10/12 02:26:52;;;;;;;0.83;0.83;;;14.00;64.70;;;;;;6156991;23;20219;-85
2023/10/12 02:29:21;;;;;;;2.10;1.90;;;14.00;64.80;;;;;;6174799;23;20152;-84
2023/10/12 02:32:06;;;;;;;0.77;0.77;;;14.00;65.10;;;;;;6178966;23;20172;-84
2023/10/12 02:34:41;;;;;;;4.07;2.10;;;13.90;65.30;;;;;;6179553;23;20164;-84
2023/10/12 02:37:19;;;;;;;0.80;0.80;;;13.90;65.20;;;;;;6180177;23;20195;-85
2023/10/12 02:39:53;;;;;;;1.07;0.87;;;14.00;65.20;;;;;;6178213;23;20161;-84
2023/10/12 02:42:38;;;;;;;1.13;1.03;;;13.90;65.10;;;;;;6172363;23;20539;-83
2023/10/12 02:45:16;;;;;;;2.43;1.60;;;13.90;65.00;;;;;;6169589;23;20161;-83
2023/10/12 02:47:47;;;;;;;0.80;0.80;;;13.90;65.00;;;;;;6169578;23;20172;-84
2023/10/12 02:50:21;;;;;;;2.17;1.87;;;14.00;65.10;;;;;;6164805;23;20161;-85
2023/10/12 02:52:52;;;;;;;1.53;0.93;;;13.90;65.10;;;;;;6153428;23;20176;-84
2023/10/12 02:55:40;;;;;;;1.80;1.00;;;14.00;65.10;;;;;;6152031;23;20240;-85
2023/10/12 02:58:19;;;;;;;1.00;1.00;;;13.90;65.00;;;;;;6153708;23;20199;-83
2023/10/12 03:00:54;;;;;;;2.80;1.43;;;13.90;65.00;;;;;;6152934;23;20164;-87
2023/10/12 03:03:31;;;;;;;4.27;0.93;;;13.90;65.00;;;;;;6153323;23;20160;-84
2023/10/12 03:06:07;;;;;;;1.43;1.00;;;13.90;65.00;;;;;;6150615;23;20208;-85
2023/10/12 03:09:01;;;;;;;1.13;1.07;;;14.00;65.00;;;;;;6126463;23;20180;-85
2023/10/12 03:11:31;;;;;;;4.63;2.60;;;13.90;64.90;;;;;;6153294;23;20186;-85
2023/10/12 03:14:03;;;;;;;3.97;1.47;;;13.90;64.80;;;;;;6152146;23;20223;-84
2023/10/12 03:16:34;;;;;;;1.70;1.33;;;13.90;65.00;;;;;;6152747;23;20240;-83
2023/10/12 03:19:17;;;;;;;1.83;1.73;;;13.90;65.00;;;;;;6153168;23;20172;-84
2023/10/12 03:21:48;;;;;;;2.13;1.43;;;13.90;65.00;;;;;;6153705;23;20224;-83
2023/10/12 03:24:17;;;;;;;15.40;2.43;;;13.90;65.00;;;;;;6153427;23;20184;-85
2023/10/12 03:26:49;;;;;;;2.57;2.37;;;13.90;65.10;;;;;;6153481;23;20228;-82
2023/10/12 03:29:21;;;;;;;1.20;1.10;;;13.90;65.40;;;;;;6151653;23;20160;-83
2023/10/12 03:31:57;;;;;;;1.70;1.23;;;13.80;65.20;;;;;;6127256;23;20160;-83
2023/10/12 03:34:53;;;;;;;3.17;1.77;;;13.80;65.20;;;;;;6152930;23;20682;-85
2023/10/12 03:37:45;;;;;;;1.70;1.60;;;13.80;65.10;;;;;;6152275;23;20211;-83
2023/10/12 03:43:16;;;;;;;1.63;1.20;;;13.80;65.30;;;;;;6151567;23;20176;-85
2023/10/12 03:46:00;;;;;;;2.50;0.93;;;13.80;65.20;;;;;;6126343;23;20161;-83
2023/10/12 03:51:25;;;;;;;2.53;2.17;;;13.70;65.30;;;;;;6149362;23;20172;-84
2023/10/12 03:54:11;;;;;;;3.90;2.67;;;13.70;65.30;;;;;;6150511;23;20623;-82
2023/10/12 03:56:40;;;;;;;0.40;0.40;;;13.70;65.20;;;;;;6150834;23;20172;-83
2023/10/12 03:59:12;;;;;;;2.03;1.17;;;13.70;65.20;;;;;;6151025;23;20236;-83
2023/10/12 04:01:41;;;;;;;1.10;0.93;;;13.70;65.10;;;;;;6147773;23;20156;-85
2023/10/12 04:04:20;;;;;;;0.70;0.70;;;13.70;65.10;;;;;;6152233;23;20184;-84
2023/10/12 04:07:16;;;;;;;1.83;1.43;;;13.70;65.10;;;;;;6151904;23;20252;-84
2023/10/12 04:09:52;;;;;;;1.23;1.07;;;13.70;65.00;;;;;;6151778;23;20168;-85
2023/10/12 04:12:29;;;;;;;1.63;1.53;;;13.70;64.90;;;;;;6149870;23;20172;-83
2023/10/12 04:15:06;;;;;;;2.07;1.13;;;13.70;64.90;;;;;;6145691;23;20196;-85
2023/10/12 04:17:43;;;;;;;6.63;2.40;;;13.70;65.00;;;;;;6125955;23;20167;-83
2023/10/12 04:20:17;;;;;;;0.90;0.90;;;13.70;64.90;;;;;;6151838;23;20199;-83
2023/10/12 04:25:46;;;;;;;3.07;0.97;;;13.70;65.50;;;;;;6130330;23;20200;-84
2023/10/12 04:28:22;;;;;;;1.80;1.47;;;13.60;65.70;;;;;;6150382;23;20765;-83
2023/10/12 04:31:27;;;;;;;5.73;1.60;;;13.60;65.80;;;;;;6150535;23;20167;-84
2023/10/12 04:34:05;;;;;;;1.27;1.17;;;13.60;66.00;;;;;;6150982;23;20615;-83
2023/10/12 04:36:44;;;;;;;1.20;1.17;;;13.60;66.00;;;;;;6127155;23;20216;-84
2023/10/12 04:39:24;;;;;;;1.70;1.37;;;13.60;66.00;;;;;;6151788;23;20173;-84
2023/10/12 04:42:02;;;;;;;4.17;2.17;;;13.50;66.10;;;;;;6150409;23;20256;-84
2023/10/12 04:44:39;;;;;;;2.40;1.57;;;13.50;66.10;;;;;;6124124;23;20211;-83
2023/10/12 04:47:12;;;;;;;0.90;0.73;;;13.50;66.10;;;;;;6149005;23;20955;-85
2023/10/12 04:49:54;;;;;;;7.93;1.37;;;13.50;66.00;;;;;;6150662;23;20165;-84
2023/10/12 04:52:33;;;;;;;1.07;0.97;;;13.50;66.10;;;;;;6150275;23;20161;-85
2023/10/12 04:55:20;;;;;;;1.33;1.17;;;13.50;66.10;;;;;;6149884;23;20160;-84
2023/10/12 05:00:48;;;;;;;12.77;1.73;;;13.50;66.10;;;;;;6150816;23;20192;-84
2023/10/12 05:03:33;;;;;;;2.50;1.87;;;13.50;66.10;;;;;;6151616;23;20175;-84
2023/10/12 05:06:04;;;;;;;2.53;1.90;;;13.60;66.10;;;;;;6150556;23;20203;-85
2023/10/12 05:08:35;;;;;;;1.13;1.13;;;13.50;66.00;;;;;;6151561;23;20188;-86
2023/10/12 05:11:06;;;;;;;0.83;0.80;;;13.60;66.10;;;;;;6151707;23;20179;-83
2023/10/12 05:13:34;;;;;;;2.00;1.13;;;13.60;66.00;;;;;;6150633;23;20196;-84
2023/10/12 05:16:06;;;;;;;1.37;1.17;;;13.60;66.00;;;;;;6151136;23;20172;-85
2023/10/12 05:18:37;;;;;;;1.17;1.07;;;13.70;66.00;;;;;;6150954;23;20172;-86
2023/10/12 05:21:08;;;;;;;1.03;1.00;;;13.70;66.00;;;;;;6152925;23;20168;-84
2023/10/12 05:23:38;;;;;;;2.00;1.63;;;13.70;66.00;;;;;;6152813;23;20172;-83
2023/10/12 05:26:10;;;;;;;1.37;1.27;;;13.80;66.20;;;;;;6152247;23;20175;-83
2023/10/12 05:28:57;;;;;;;1.23;1.07;;;13.80;66.20;;;;;;6152192;23;20188;-85
2023/10/12 05:31:29;;;;;;;1.50;1.30;;;13.90;66.40;;;;;;6152328;23;20618;-84
2023/10/12 05:34:25;;;;;;;12.87;3.00;;;13.90;66.60;;;;;;6151552;23;20168;-83
2023/10/12 05:36:51;;;;;;;3.60;3.03;;;14.00;67.10;;;;;;6151507;23;20255;-83
2023/10/12 05:39:22;;;;;;;6.07;2.07;;;14.00;67.20;;;;;;6149106;23;20180;-82
2023/10/12 05:41:53;;;;;;;4.17;2.20;;;14.00;67.10;;;;;;6151707;23;20215;-86
2023/10/12 05:44:26;;;;;;;3.87;2.00;;;14.10;67.00;;;;;;6150344;23;20631;-90
2023/10/12 05:47:00;;;;;;;2.00;1.60;;;14.10;67.70;;;;;;6151989;23;20164;-86
2023/10/12 05:49:33;;;;;;;1.57;1.10;;;14.20;68.50;;;;;;6151744;23;20157;-86
2023/10/12 05:52:05;;;;;;;1.40;1.30;;;14.20;68.50;;;;;;6152736;23;20618;-85
2023/10/12 05:54:35;;;;;;;2.60;2.40;;;14.30;69.40;;;;;;6149330;23;20196;-85
2023/10/12 05:57:07;;;;;;;1.13;1.03;;;14.30;69.50;;;;;;6150592;23;20239;-86
2023/10/12 05:59:38;;;;;;;1.30;1.17;;;14.30;69.50;;;;;;6155076;23;20252;-86
2023/10/12 06:02:08;;;;;;;1.90;1.73;;;14.40;70.00;;;;;;6152208;23;20227;-85
2023/10/12 06:04:38;;;;;;;1.50;1.40;;;14.50;69.90;;;;;;6152869;23;20160;-86
2023/10/12 06:07:07;;;;;;;2.30;1.65;;;14.50;70.00;;;;;;6151306;23;20457;-84
2023/10/12 06:09:37;;;;;;;3.57;1.53;;;14.50;70.00;;;;;;6152226;23;20172;-85
2023/10/12 06:12:07;;;;;;;1.70;1.07;;;14.60;70.00;;;;;;6153055;23;20599;-85
2023/10/12 06:14:36;;;;;;;3.50;1.40;;;14.60;70.30;;;;;;6153445;23;20275;-92
2023/10/12 06:17:06;;;;;;;0.80;0.80;;;14.60;70.50;;;;;;6155832;23;20172;-86
2023/10/12 06:19:36;;;;;;;1.40;1.30;;;14.70;70.60;;;;;;6129143;23;20649;-84
2023/10/12 06:24:53;;;;;;;0.77;0.77;;;14.80;70.20;;;;;;6154771;23;20161;-92
2023/10/12 06:27:23;;;;;;;6.63;2.30;;;14.90;70.60;;;;;;6162258;23;20172;-88
2023/10/12 06:29:54;;;;;;;3.00;2.33;;;14.90;70.60;;;;;;6155162;23;20172;-86
2023/10/12 06:32:31;;;;;;;2.97;1.83;;;15.00;70.50;;;;;;6155485;23;20160;-85
2023/10/12 06:35:23;;;;;;;8.70;1.53;;;15.00;70.50;;;;;;6152125;23;20677;-84
2023/10/12 06:40:47;;;;;;;0.83;0.83;;;15.20;70.00;;;;;;6149064;23;20247;-84
2023/10/12 06:46:05;;;;;;;4.33;1.70;;;15.40;70.00;;;;;;6138734;23;20173;-87
2023/10/12 06:48:46;;;;;;;5.90;2.50;;;15.50;69.80;;;;;;6152383;23;20231;-85
2023/10/12 06:51:15;;;;;;;1.20;1.10;;;15.60;69.80;;;;;;6152040;23;20751;-84
2023/10/12 06:53:53;;;;;;;1.17;0.70;;;15.60;69.60;;;;;;6151925;23;20618;-84
2023/10/12 06:56:28;;;;;;;7.33;1.57;;;15.70;69.70;;;;;;6153115;23;20164;-86
2023/10/12 06:59:21;;;;;;;1.17;1.13;;;15.80;70.00;;;;;;6151644;23;20239;-90
2023/10/12 07:01:53;;;;;;;2.50;1.43;;;15.80;70.40;;;;;;6153403;23;20176;-88
2023/10/12 07:04:27;;;;;;;1.10;0.90;;;16.00;70.70;;;;;;6126830;23;20165;-89
2023/10/12 07:07:00;;;;;;;2.37;1.07;;;15.90;70.50;;;;;;6150572;23;20211;-86
2023/10/12 07:09:39;;;;;;;0.73;0.73;;;16.10;70.20;;;;;;6150400;23;20286;-88
2023/10/12 07:12:11;;;;;;;3.93;1.97;;;16.20;70.40;;;;;;6153184;23;20168;-86
2023/10/12 07:14:46;;;;;;;5.00;1.17;;;16.20;70.20;;;;;;6153245;23;20232;-84
2023/10/12 07:17:17;;;;;;;0.40;0.40;;;16.30;70.00;;;;;;6126613;23;20617;-88
2023/10/12 07:19:49;;;;;;;2.17;1.17;;;16.30;70.30;;;;;;6155436;23;20666;-88
2023/10/12 07:22:18;;;;;;;3.27;0.97;;;16.50;70.50;;;;;;6156021;23;20261;-87
2023/10/12 07:24:53;;;;;;;1.33;1.23;;;16.50;70.30;;;;;;6156018;23;20235;-86
2023/10/12 07:27:24;;;;;;;1.40;1.30;;;16.60;70.50;;;;;;6155580;23;20173;-88
2023/10/12 07:30:08;;;;;;;0.50;0.50;;;16.70;70.20;;;;;;6156056;23;20200;-84
2023/10/12 07:32:38;;;;;;;0.60;0.60;;;16.80;70.10;;;;;;6154054;23;20168;-85
2023/10/12 07:35:17;;;;;;;0.77;0.77;;;16.90;69.90;;;;;;6154455;23;20164;-88
2023/10/12 07:37:47;;;;;;;4.23;0.77;;;17.00;69.60;;;;;;6154572;23;20172;-86
2023/10/12 07:40:19;;;;;;;1.77;1.43;;;17.10;70.10;;;;;;6129314;23;20559;-86
2023/10/12 07:42:48;;;;;;;0.70;0.70;;;17.20;69.10;;;;;;6153881;23;20161;-86
2023/10/12 07:45:18;;;;;;;1.73;1.63;;;17.30;68.60;;;;;;6154218;23;20168;-87
2023/10/12 07:47:58;;;;;;;1.80;1.57;;;17.30;67.90;;;;;;6131118;23;20156;-88
2023/10/12 07:50:37;;;;;;;1.97;0.80;;;17.40;67.70;;;;;;6155976;23;20236;-90
2023/10/12 07:53:21;;;;;;;1.00;1.00;;;17.50;67.40;;;;;;6128930;23;20486;-86
2023/10/12 07:56:00;;;;;;;0.80;0.70;;;17.60;67.00;;;;;;6154056;23;20563;-87
2023/10/12 07:58:30;;;;;;;3.03;1.50;;;17.70;66.70;;;;;;6153541;23;20235;-85
2023/10/12 08:01:20;;;;;;;2.10;1.37;;;17.80;66.50;;;;;;6127756;23;20211;-85
2023/10/12 08:03:50;;;;;;;2.30;1.70;;;17.90;66.30;;;;;;6154100;23;20161;-88
2023/10/12 08:06:28;;;;;;;1.97;1.17;;;18.00;66.10;;;;;;6129206;23;20203;-89
2023/10/12 08:09:04;;;;;;;1.07;0.93;;;18.00;65.50;;;;;;6125329;23;20588;-83
2023/10/12 08:11:38;;;;;;;2.20;1.30;;;18.20;65.50;;;;;;6156568;23;20168;-87
2023/10/12 08:14:19;;;;;;;1.50;0.83;;;18.30;64.60;;;;;;6156390;23;20156;-88
2023/10/12 08:17:25;;;;;;;1.57;1.13;;;18.30;64.30;;;;;;6155250;23;20215;-87
2023/10/12 08:19:39;;;;;;;1.43;1.00;;;18.40;64.20;;;;;;6153368;23;20179;-86
2023/10/12 08:22:17;;;;;;;0.50;0.50;;;18.60;64.10;;;;;;6153285;23;20196;-86
2023/10/12 08:24:46;;;;;;;0.93;0.93;;;18.60;63.70;;;;;;6153567;23;20248;-88
2023/10/12 08:27:18;;;;;;;2.20;0.93;;;18.80;63.80;;;;;;6154362;23;20168;-85
2023/10/12 08:30:13;;;;;;;1.33;1.23;;;18.90;63.90;;;;;;6154969;23;20701;-85
2023/10/12 08:32:55;;;;;;;1.20;1.13;;;19.00;63.10;;;;;;6156722;23;20176;-85
2023/10/12 08:35:37;;;;;;;0.60;0.60;;;19.10;62.60;;;;;;6154695;23;20615;-86
2023/10/12 08:38:15;;;;;;;0.40;0.40;;;19.20;63.00;;;;;;6154354;23;20188;-86
2023/10/12 08:43:45;;;;;;;1.30;0.90;;;19.40;62.20;;;;;;6128316;23;20175;-89
2023/10/12 08:46:38;;;;;;;0.97;0.97;;;19.40;61.60;;;;;;6153491;23;20169;-89
2023/10/12 08:52:07;;;;;;;2.65;1.60;;;19.60;61.20;;;;;;6153458;23;20180;-87
2023/10/12 08:54:42;;;;;;;1.20;1.08;;;19.70;61.60;;;;;;6156238;23;20636;-91
2023/10/12 08:57:20;;;;;;;3.50;1.85;;;19.80;61.50;;;;;;6154208;23;20156;-87
2023/10/12 09:00:19;;;;;;;1.35;0.98;;;19.90;61.90;;;;;;6154874;23;20164;-88
2023/10/12 09:02:52;;;;;;;1.42;0.88;;;20.00;62.00;;;;;;6157011;23;20204;-92
2023/10/12 09:05:25;;;;;;;0.88;0.73;;;20.10;61.80;;;;;;6156760;23;20160;-91
2023/10/12 09:08:06;;;;;;;0.50;0.50;;;20.20;62.10;;;;;;6131387;23;20192;-89
2023/10/12 09:10:55;;;;;;;0.75;0.65;;;20.20;62.40;;;;;;6154867;23;20199;-88
2023/10/12 09:13:28;;;;;;;1.17;0.85;;;20.30;62.40;;;;;;6155147;23;20164;-89
2023/10/12 09:16:02;;;;;;;0.73;0.73;;;20.40;62.10;;;;;;6129067;23;20534;-90
2023/10/12 09:18:43;;;;;;;1.00;0.73;;;20.50;62.40;;;;;;6136764;23;20221;-91
2023/10/12 09:21:24;;;;;;;1.70;0.82;;;20.60;61.60;;;;;;6157898;23;20188;-90
2023/10/12 09:23:58;;;;;;;1.27;0.85;;;20.60;61.00;;;;;;6156395;23;20207;-92
2023/10/12 09:26:34;;;;;;;1.27;0.60;;;20.70;61.40;;;;;;6155898;23;20543;-86
2023/10/12 09:29:20;;;;;;;0.32;0.32;;;20.80;61.30;;;;;;6131603;23;20270;-90
2023/10/12 09:32:15;;;;;;;0.50;0.50;;;20.90;61.00;;;;;;6152959;23;20557;-88
2023/10/12 09:37:51;;;;;;;0.70;0.63;;;21.10;60.70;;;;;;5118794;27;20553;-90
2023/10/12 09:40:26;;;;;;;0.95;0.90;;;21.20;60.10;;;;;;5128200;28;20553;-93
2023/10/12 09:42:59;;;;;;;0.43;0.43;;;21.30;59.60;;;;;;5115513;27;20196;-88
2023/10/12 09:45:34;;;;;;;2.40;1.15;;;21.40;59.40;;;;;;5123980;27;20226;-88
2023/10/12 09:48:06;;;;;;;0.70;0.63;;;21.50;59.60;;;;;;5127376;28;20203;-88
2023/10/12 09:50:36;;;;;;;0.50;0.50;;;21.50;59.40;;;;;;5125249;27;20193;-90
2023/10/12 09:53:15;;;;;;;0.60;0.60;;;21.50;59.10;;;;;;5135830;27;20204;-89
2023/10/12 09:56:03;;;;;;;0.68;0.60;;;21.60;59.00;;;;;;5135262;28;20211;-88
2023/10/12 09:58:43;;;;;;;0.40;0.40;;;21.70;58.90;;;;;;5141434;28;20177;-91
2023/10/12 10:01:17;;;;;;;0.82;0.70;;;21.70;58.50;;;;;;5146088;27;20189;-95
2023/10/12 10:03:49;;;;;;;0.55;0.47;;;21.80;58.60;;;;;;5145423;27;20184;-93
2023/10/12 10:06:31;;;;;;;4.30;1.48;;;21.80;58.40;;;;;;5144909;28;20183;-93
2023/10/12 10:09:19;;;;;;;7.35;1.80;;;21.90;58.00;;;;;;5151296;28;20180;-91
2023/10/12 10:11:58;;;;;;;2.00;1.33;;;21.90;57.80;;;;;;5150135;28;20215;-89
2023/10/12 10:14:33;;;;;;;0.38;0.38;;;22.00;57.90;;;;;;5123645;28;20267;-89
2023/10/12 10:17:03;;;;;;;3.10;1.00;;;22.10;57.80;;;;;;5123818;28;20486;-91
2023/10/12 10:19:32;;;;;;;0.30;0.30;;;22.20;57.50;;;;;;5119356;27;20290;-92
2023/10/12 10:22:10;;;;;;;1.38;0.60;;;22.30;57.50;;;;;;5112930;27;20288;-89
2023/10/12 10:24:50;;;;;;;0.75;0.75;;;22.30;57.40;;;;;;5121774;27;20193;-92
2023/10/12 10:27:26;;;;;;;0.70;0.70;;;22.30;57.10;;;;;;5121834;27;20193;-88
2023/10/12 10:30:00;;;;;;;0.80;0.80;;;22.40;56.80;;;;;;5125175;28;20210;-92
2023/10/12 10:32:31;;;;;;;0.70;0.60;;;22.40;56.40;;;;;;5131095;28;20204;-89
2023/10/12 10:35:04;;;;;;;2.97;1.70;;;22.50;56.30;;;;;;5123684;28;20593;-89
2023/10/12 10:37:57;;;;;;;6.28;3.55;;;22.50;55.90;;;;;;5115222;28;20232;-92
2023/10/12 10:40:43;;;;;;;10.45;1.83;;;22.50;55.80;;;;;;5111912;27;20189;-90
2023/10/12 10:43:15;;;;;;;1.00;0.75;;;22.60;56.00;;;;;;5110206;28;20192;-87
2023/10/12 10:45:56;;;;;;;0.30;0.30;;;22.60;55.90;;;;;;5119025;28;20224;-90
2023/10/12 10:48:27;;;;;;;0.40;0.40;;;22.70;55.70;;;;;;5108416;27;20197;-88
2023/10/12 10:51:19;;;;;;;1.08;0.98;;;22.70;55.40;;;;;;5110053;28;20193;-87
2023/10/12 10:53:52;;;;;;;0.73;0.60;;;22.80;55.40;;;;;;5112802;28;20204;-88
2023/10/12 10:56:37;;;;;;;0.40;0.40;;;22.80;55.00;;;;;;5111483;28;20258;-88
2023/10/12 10:59:07;;;;;;;10.20;0.65;;;22.90;55.00;;;;;;5105861;27;20229;-89
2023/10/12 11:01:35;;;;;;;0.30;0.30;;;23.00;54.90;;;;;;5106302;28;20197;-88
2023/10/12 11:04:08;;;;;;;0.52;0.52;;;23.00;54.50;;;;;;5109685;27;20193;-87
2023/10/12 11:06:39;;;;;;;0.45;0.45;;;23.10;54.50;;;;;;5096870;28;20206;-86
2023/10/12 11:09:13;;;;;;;1.05;0.95;;;23.10;54.30;;;;;;5105649;28;20284;-89
2023/10/12 11:11:48;;;;;;;0.47;0.47;;;23.20;54.10;;;;;;5106535;28;20219;-88
2023/10/12 11:14:22;;;;;;;0.38;0.38;;;23.30;54.20;;;;;;5112170;28;20246;-90
2023/10/12 11:16:54;;;;;;;0.95;0.80;;;23.30;53.90;;;;;;5095112;28;20213;-90
2023/10/12 11:19:24;;;;;;;0.40;0.40;;;23.40;53.60;;;;;;5112557;28;20227;-92
2023/10/12 11:21:52;;;;;;;0.85;0.47;;;23.40;53.70;;;;;;5109278;27;20264;-91
2023/10/12 11:24:23;;;;;;;0.68;0.68;;;23.40;53.30;;;;;;5105113;28;20199;-90
2023/10/12 11:26:56;;;;;;;0.28;0.28;;;23.50;53.30;;;;;;5105218;28;20194;-92
2023/10/12 11:29:26;;;;;;;0.30;0.30;;;23.60;53.00;;;;;;5102024;28;20201;-91
2023/10/12 11:32:11;;;;;;;0.82;0.47;;;23.60;52.80;;;;;;5108958;28;20947;-88
2023/10/12 11:34:45;;;;;;;2.17;0.50;;;23.70;52.70;;;;;;5110190;28;20217;-88
2023/10/12 11:37:15;;;;;;;0.60;0.60;;;23.70;52.80;;;;;;5115441;27;20232;-88
2023/10/12 11:39:45;;;;;;;0.77;0.77;;;23.80;52.70;;;;;;5107144;28;20586;-88
2023/10/12 11:42:17;;;;;;;0.95;0.70;;;23.80;52.70;;;;;;5116140;28;20217;-95
2023/10/12 11:44:51;;;;;;;0.77;0.77;;;23.90;52.10;;;;;;5100863;28;20663;-88
2023/10/12 11:47:43;;;;;;;4.03;1.55;;;23.90;52.40;;;;;;5114099;28;20185;-91
2023/10/12 11:50:13;;;;;;;0.52;0.40;;;23.90;52.10;;;;;;5110265;28;20280;-87
2023/10/12 11:52:50;;;;;;;4.32;1.70;;;23.90;51.70;;;;;;5106670;28;20671;-91
2023/10/12 11:55:20;;;;;;;2.05;1.50;;;23.90;51.90;;;;;;5106525;28;20211;-90
2023/10/12 11:57:54;;;;;;;0.63;0.63;;;24.00;52.00;;;;;;5103252;28;20224;-91
2023/10/12 12:00:26;;;;;;;1.30;1.20;;;24.00;51.60;;;;;;5106289;28;20180;-87
2023/10/12 12:02:59;;;;;;;0.30;0.30;;;24.00;51.80;;;;;;5111503;27;20648;-90
2023/10/12 12:05:29;;;;;;;1.60;0.40;;;24.00;51.50;;;;;;5113306;28;20200;-88
2023/10/12 12:08:05;;;;;;;1.02;0.93;;;24.00;51.30;;;;;;5108714;28;20201;-88
2023/10/12 12:10:46;;;;;;;1.65;0.68;;;24.10;51.80;;;;;;5111622;28;20245;-91
2023/10/12 12:13:20;;;;;;;0.70;0.68;;;24.10;51.30;;;;;;5106312;28;20726;-90
2023/10/12 12:15:50;;;;;;;0.32;0.32;;;24.10;50.80;;;;;;5112739;28;20239;-89
2023/10/12 12:18:32;;;;;;;0.43;0.43;;;24.10;50.60;;;;;;5100603;28;20201;-89
2023/10/12 12:21:15;;;;;;;0.50;0.50;;;24.20;50.60;;;;;;5114146;28;20205;-89
2023/10/12 12:23:50;;;;;;;3.22;1.13;;;24.20;50.80;;;;;;5105419;28;20193;-91
2023/10/12 12:26:33;;;;;;;0.45;0.45;;;24.20;50.40;;;;;;5113406;27;20293;-86
2023/10/12 12:29:11;;;;;;;0.30;0.30;;;24.30;50.60;;;;;;5115140;28;20193;-92
2023/10/12 12:31:53;;;;;;;1.35;0.68;;;24.30;50.30;;;;;;5113843;28;20188;-92
2023/10/12 12:34:47;;;;;;;0.40;0.40;;;24.30;49.90;;;;;;5107668;27;20201;-87
2023/10/12 12:37:38;;;;;;;3.47;0.50;;;24.40;50.40;;;;;;5107307;28;20628;-87
2023/10/12 12:40:27;;;;;;;0.32;0.30;;;24.50;50.40;;;;;;5098311;28;20193;-87
2023/10/12 12:43:26;;;;;;;3.25;1.00;;;24.60;50.40;;;;;;5102216;28;20281;-86
2023/10/12 12:49:01;;;;;;;1.40;0.88;;;24.80;50.20;;;;;;5087260;27;20773;-87
2023/10/12 12:51:37;;;;;;;0.50;0.50;;;24.80;49.70;;;;;;5104219;28;20200;-87
2023/10/12 12:54:55;;;;;;;0.63;0.63;;;24.90;49.70;;;;;;5108283;28;20189;-91
2023/10/12 12:57:30;;;;;;;0.70;0.57;;;25.00;49.30;;;;;;5101801;28;20228;-93
2023/10/12 13:00:19;;;;;;;1.25;0.25;;;25.10;48.70;;;;;;5103982;28;20246;-88
2023/10/12 13:03:11;;;;;;;0.38;0.38;;;25.20;48.30;;;;;;5099542;28;20189;-89
2023/10/12 13:05:49;;;;;;;0.35;0.35;;;25.30;48.90;;;;;;5107681;28;20275;-88
2023/10/12 13:08:39;;;;;;;0.47;0.32;;;25.30;49.40;;;;;;5106033;28;20199;-86
2023/10/12 13:11:17;;;;;;;1.40;0.45;;;25.40;48.40;;;;;;5107760;28;22609;-88
2023/10/12 13:13:48;;;;;;;1.08;0.75;;;25.40;48.40;;;;;;5103997;28;20200;-85
2023/10/12 13:16:18;;;;;;;0.68;0.68;;;25.40;48.40;;;;;;5099251;28;20246;-89
2023/10/12 13:18:55;;;;;;;0.88;0.47;;;25.40;48.10;;;;;;5108222;28;20212;-89
2023/10/12 13:26:57;;;;;;;0.55;0.55;;;25.20;47.90;;;;;;5023174;28;20219;-91
2023/10/12 13:29:36;;;;;;;0.40;0.40;;;25.20;47.90;;;;;;5035176;28;20221;-91
2023/10/12 13:32:29;;;;;;;1.05;0.60;;;25.20;47.80;;;;;;5033052;28;20282;-92
2023/10/12 13:35:41;;;;;;;0.35;0.35;;;25.10;47.30;;;;;;5023754;28;20255;-90
2023/10/12 13:38:29;;;;;;;1.42;0.55;;;25.10;47.70;;;;;;5034346;28;20250;-89
2023/10/12 13:41:10;;;;;;;0.20;0.20;;;25.10;47.60;;;;;;5031252;28;20593;-92
2023/10/12 13:43:45;;;;;;;0.47;0.47;;;25.10;47.60;;;;;;5031497;28;20539;-90
2023/10/12 13:46:15;;;;;;;0.20;0.20;;;25.20;47.60;;;;;;5026579;28;20288;-93
2023/10/12 13:48:47;;;;;;;0.30;0.30;;;25.20;47.70;;;;;;5023963;28;20197;-88
2023/10/12 13:51:31;;;;;;;1.17;0.77;;;25.10;47.60;;;;;;5023224;28;20258;-86
2023/10/12 13:54:01;;;;;;;5.38;1.65;;;25.10;48.00;;;;;;5008596;28;20204;-86
2023/10/12 13:56:34;;;;;;;0.30;0.30;;;25.10;47.90;;;;;;5007647;28;20215;-86
2023/10/12 13:59:05;;;;;;;0.73;0.73;;;25.10;48.10;;;;;;5025088;28;20769;-90
2023/10/12 14:01:36;;;;;;;1.70;0.88;;;25.00;48.00;;;;;;5026876;28;20203;-87
2023/10/12 14:04:28;;;;;;;0.22;0.22;;;25.10;48.10;;;;;;5026342;28;20254;-85
2023/10/12 14:07:01;;;;;;;1.15;1.05;;;25.00;48.20;;;;;;5010133;28;20192;-86
2023/10/12 14:09:31;;;;;;;0.30;0.30;;;24.90;47.80;;;;;;5028412;28;20215;-85